Time;durP1;ratioP1;P1;durP2;ratioP2;P2;SDS_P1;SDS_P2;PMS_P1;PMS_P2;Temp;Humidity;BMP_temperature;BMP_pressure;BME280_temperature;BME280_humidity;BME280_pressure;Samples;Min_cycle;Max_cycle;Signal;HPM_P1;HPM_P2
2021/05/25 00:00:55;;;;;;;3.75;3.45;;;10.00;94.10;;;;;;4957645;28;20783;-86
2021/05/25 00:03:22;;;;;;;4.72;3.70;;;9.90;94.20;;;;;;4965226;28;20033;-83
2021/05/25 00:05:48;;;;;;;5.47;3.85;;;9.90;94.30;;;;;;4961923;28;20045;-83
2021/05/25 00:08:14;;;;;;;4.28;3.65;;;9.80;94.30;;;;;;4962753;28;20610;-82
2021/05/25 00:10:40;;;;;;;5.40;3.90;;;9.80;94.40;;;;;;4959137;28;20062;-84
2021/05/25 00:13:07;;;;;;;7.93;4.32;;;9.80;94.40;;;;;;4949187;28;20114;-83
2021/05/25 00:15:33;;;;;;;5.25;4.75;;;9.80;94.50;;;;;;4977055;28;20050;-85
2021/05/25 00:18:00;;;;;;;8.00;4.90;;;9.80;94.60;;;;;;4955692;28;20027;-86
2021/05/25 00:20:27;;;;;;;5.63;4.80;;;9.80;94.70;;;;;;4946409;28;20035;-85
2021/05/25 00:22:53;;;;;;;7.40;5.60;;;9.70;94.80;;;;;;4955137;28;20035;-84
2021/05/25 00:25:20;;;;;;;7.35;5.45;;;9.70;94.80;;;;;;4958759;28;20129;-85
2021/05/25 00:27:47;;;;;;;7.65;5.60;;;9.70;94.90;;;;;;4946756;28;20043;-89
2021/05/25 00:30:16;;;;;;;5.82;4.90;;;9.70;95.00;;;;;;4961262;28;20065;-84
2021/05/25 00:32:43;;;;;;;6.82;4.82;;;9.70;95.10;;;;;;4973704;28;20117;-86
2021/05/25 00:35:10;;;;;;;5.35;4.63;;;9.70;95.10;;;;;;4971574;28;20030;-84
2021/05/25 00:37:36;;;;;;;6.10;4.45;;;9.60;95.10;;;;;;4967150;28;20043;-84
2021/05/25 00:40:04;;;;;;;5.75;4.90;;;9.60;95.10;;;;;;4949062;28;20498;-85
2021/05/25 00:42:31;;;;;;;7.63;4.72;;;9.60;95.10;;;;;;4968324;28;20042;-83
2021/05/25 00:44:57;;;;;;;6.38;4.75;;;9.60;95.20;;;;;;4964367;28;20802;-86
2021/05/25 00:47:31;;;;;;;9.50;5.40;;;9.50;95.20;;;;;;4969794;28;20066;-87
2021/05/25 00:50:09;;;;;;;7.00;5.95;;;9.50;95.30;;;;;;4974353;28;20038;-83
2021/05/25 00:52:47;;;;;;;5.20;4.70;;;9.50;95.30;;;;;;4992135;28;20043;-86
2021/05/25 00:55:17;;;;;;;6.40;5.03;;;9.50;95.40;;;;;;4965022;28;20066;-84
2021/05/25 00:57:45;;;;;;;5.72;4.80;;;9.50;95.40;;;;;;4974950;28;20034;-83
2021/05/25 01:00:12;;;;;;;6.65;5.15;;;9.50;95.50;;;;;;4955928;28;20039;-83
2021/05/25 01:02:38;;;;;;;8.88;5.00;;;9.50;95.50;;;;;;4964397;28;20075;-88
2021/05/25 01:05:05;;;;;;;5.95;4.50;;;9.50;95.60;;;;;;4957407;28;20074;-85
2021/05/25 01:07:32;;;;;;;5.85;5.20;;;9.50;95.70;;;;;;4969524;28;20066;-83
2021/05/25 01:10:00;;;;;;;5.85;4.80;;;9.50;95.70;;;;;;4953890;28;20046;-84
2021/05/25 01:12:29;;;;;;;6.43;4.43;;;9.50;95.70;;;;;;4961017;28;20509;-84
2021/05/25 01:14:59;;;;;;;5.85;4.55;;;9.40;95.80;;;;;;4958521;28;20826;-83
2021/05/25 01:17:25;;;;;;;5.53;4.25;;;9.40;95.80;;;;;;4958689;28;20035;-84
2021/05/25 01:19:51;;;;;;;10.57;4.63;;;9.40;95.80;;;;;;4961936;28;20157;-86
2021/05/25 01:22:17;;;;;;;5.10;4.50;;;9.40;95.80;;;;;;4948492;28;20669;-83
2021/05/25 01:24:42;;;;;;;8.65;5.32;;;9.40;95.80;;;;;;4976607;28;20123;-84
2021/05/25 01:27:08;;;;;;;8.75;5.32;;;9.40;95.90;;;;;;4953869;28;20039;-83
2021/05/25 01:29:37;;;;;;;10.55;5.70;;;9.40;95.90;;;;;;4963084;28;20082;-84
2021/05/25 01:32:04;;;;;;;9.23;5.95;;;9.40;95.90;;;;;;4991702;28;20106;-84
2021/05/25 01:34:30;;;;;;;9.32;6.53;;;9.40;95.90;;;;;;4979792;28;20042;-83
2021/05/25 01:36:55;;;;;;;11.27;7.10;;;9.40;96.00;;;;;;4957011;28;20043;-83
2021/05/25 01:39:21;;;;;;;9.10;7.30;;;9.40;96.00;;;;;;4961461;28;20033;-82
2021/05/25 01:41:54;;;;;;;10.07;7.03;;;9.40;96.00;;;;;;4965059;28;20066;-84
2021/05/25 01:44:20;;;;;;;12.32;8.25;;;9.40;96.10;;;;;;4968466;28;20050;-85
2021/05/25 01:46:47;;;;;;;11.25;7.97;;;9.40;96.00;;;;;;4951463;28;21352;-83
2021/05/25 01:49:17;;;;;;;15.00;8.68;;;9.40;96.10;;;;;;4979074;28;20402;-85
2021/05/25 01:51:49;;;;;;;10.75;8.40;;;9.40;96.10;;;;;;4963520;28;20031;-84
2021/05/25 01:54:16;;;;;;;13.43;8.52;;;9.40;96.10;;;;;;4962641;28;20086;-84
2021/05/25 01:56:42;;;;;;;9.82;7.95;;;9.40;96.10;;;;;;4957316;28;20058;-83
2021/05/25 01:59:09;;;;;;;12.60;8.55;;;9.40;96.10;;;;;;4964971;28;20039;-89
2021/05/25 02:01:35;;;;;;;13.95;9.55;;;9.40;96.10;;;;;;4964318;28;20034;-84
2021/05/25 02:04:01;;;;;;;12.20;8.93;;;9.40;96.20;;;;;;4974862;28;20035;-83
2021/05/25 02:06:26;;;;;;;13.07;9.05;;;9.40;96.10;;;;;;4938658;28;20409;-85
2021/05/25 02:08:52;;;;;;;12.07;9.25;;;9.40;96.20;;;;;;4946056;28;20129;-86
2021/05/25 02:11:18;;;;;;;16.98;11.07;;;9.40;96.20;;;;;;4976028;28;20039;-85
2021/05/25 02:13:44;;;;;;;16.85;10.13;;;9.40;96.20;;;;;;4939509;28;20030;-84
2021/05/25 02:16:13;;;;;;;13.40;10.65;;;9.40;96.30;;;;;;4968461;28;20042;-82
2021/05/25 02:18:45;;;;;;;18.85;11.52;;;9.40;96.30;;;;;;4960528;28;20347;-83
2021/05/25 02:21:13;;;;;;;16.73;10.93;;;9.40;96.40;;;;;;4968575;28;20150;-84
2021/05/25 02:23:39;;;;;;;19.23;12.40;;;9.40;96.40;;;;;;4966872;28;20039;-85
2021/05/25 02:26:06;;;;;;;18.45;12.25;;;9.40;96.40;;;;;;4997709;28;20065;-84
2021/05/25 02:28:31;;;;;;;18.02;12.00;;;9.40;96.40;;;;;;4977350;28;20039;-86
2021/05/25 02:30:58;;;;;;;22.02;13.07;;;9.40;96.50;;;;;;4965555;28;20046;-84
2021/05/25 02:33:25;;;;;;;18.13;12.38;;;9.40;96.50;;;;;;4950278;28;20027;-84
2021/05/25 02:35:56;;;;;;;19.55;12.75;;;9.40;96.50;;;;;;4966604;28;20125;-84
2021/05/25 02:38:24;;;;;;;21.85;14.77;;;9.40;96.50;;;;;;4962781;28;21129;-84
2021/05/25 02:40:51;;;;;;;21.27;14.40;;;9.40;96.60;;;;;;4966938;28;20041;-86
2021/05/25 02:43:22;;;;;;;19.33;13.43;;;9.40;96.60;;;;;;4976314;28;20117;-85
2021/05/25 02:45:48;;;;;;;19.75;14.65;;;9.40;96.60;;;;;;4966101;28;20078;-86
2021/05/25 02:48:15;;;;;;;19.42;14.48;;;9.40;96.60;;;;;;4979083;28;20448;-85
2021/05/25 02:50:42;;;;;;;24.33;15.20;;;9.40;96.70;;;;;;4947215;28;20035;-87
2021/05/25 02:53:08;;;;;;;24.85;16.95;;;9.40;96.70;;;;;;4964054;28;20043;-86
2021/05/25 02:55:37;;;;;;;27.35;15.68;;;9.40;96.70;;;;;;4948901;28;20053;-84
2021/05/25 02:58:05;;;;;;;25.95;16.88;;;9.40;96.80;;;;;;4963968;28;20262;-87
2021/05/25 03:00:33;;;;;;;23.90;16.42;;;9.40;96.80;;;;;;4976996;28;20026;-85
2021/05/25 03:02:59;;;;;;;22.92;15.55;;;9.40;96.80;;;;;;4964872;28;20027;-84
2021/05/25 03:05:26;;;;;;;26.70;16.15;;;9.40;96.80;;;;;;4960434;28;21300;-86
2021/05/25 03:07:54;;;;;;;26.35;17.45;;;9.40;96.80;;;;;;4950783;28;20102;-86
2021/05/25 03:10:23;;;;;;;26.35;17.13;;;9.40;96.80;;;;;;4962567;28;20485;-85
2021/05/25 03:12:49;;;;;;;24.17;17.08;;;9.40;96.90;;;;;;4966027;28;20030;-87
2021/05/25 03:15:20;;;;;;;28.10;17.50;;;9.30;96.90;;;;;;4983200;28;20159;-85
2021/05/25 03:17:45;;;;;;;28.08;17.80;;;9.40;96.90;;;;;;4972004;28;20468;-85
2021/05/25 03:20:13;;;;;;;25.38;15.85;;;9.40;96.90;;;;;;4980151;28;20493;-85
2021/05/25 03:22:40;;;;;;;25.85;17.23;;;9.30;96.90;;;;;;4964446;28;20038;-86
2021/05/25 03:25:08;;;;;;;24.17;15.63;;;9.30;97.20;;;;;;4951770;28;20148;-84
2021/05/25 03:27:34;;;;;;;26.25;16.77;;;9.30;96.90;;;;;;4947424;28;20050;-85
2021/05/25 03:30:00;;;;;;;27.52;17.98;;;9.30;96.90;;;;;;4968129;28;20508;-86
2021/05/25 03:32:26;;;;;;;28.38;16.90;;;9.30;96.90;;;;;;4962216;28;20414;-86
2021/05/25 03:34:52;;;;;;;22.45;15.73;;;9.30;97.00;;;;;;4945717;28;20046;-88
2021/05/25 03:37:18;;;;;;;24.98;16.10;;;9.30;97.00;;;;;;4978098;28;20509;-85
2021/05/25 03:39:44;;;;;;;23.67;16.70;;;9.20;97.00;;;;;;4946632;28;20027;-86
2021/05/25 03:42:10;;;;;;;25.02;15.63;;;9.20;96.90;;;;;;4994997;28;20482;-89
2021/05/25 03:44:36;;;;;;;26.00;16.90;;;9.20;97.00;;;;;;4968903;28;20117;-84
2021/05/25 03:47:02;;;;;;;12.88;8.60;;;9.20;97.00;;;;;;4945074;28;20093;-88
2021/05/25 03:49:28;;;;;;;7.85;4.03;;;9.20;97.00;;;;;;4953820;28;20043;-87
2021/05/25 03:51:54;;;;;;;6.10;3.70;;;9.20;96.90;;;;;;4966859;28;20034;-84
2021/05/25 03:54:24;;;;;;;5.75;3.40;;;9.10;96.70;;;;;;4965554;28;20054;-86
2021/05/25 03:57:07;;;;;;;5.78;3.70;;;9.10;96.70;;;;;;4973422;28;20039;-84
2021/05/25 03:59:33;;;;;;;9.90;3.30;;;8.90;96.50;;;;;;4949186;28;20131;-87
2021/05/25 04:01:59;;;;;;;4.70;2.25;;;8.90;96.40;;;;;;4970701;28;20040;-85
2021/05/25 04:04:25;;;;;;;5.07;2.35;;;8.80;96.40;;;;;;4963393;28;20118;-87
2021/05/25 04:06:51;;;;;;;7.80;2.53;;;8.80;96.30;;;;;;4946315;28;20122;-86
2021/05/25 04:09:17;;;;;;;4.57;2.28;;;8.70;96.30;;;;;;4957262;28;20039;-85
2021/05/25 04:11:42;;;;;;;4.38;2.10;;;8.60;96.20;;;;;;4959636;28;20039;-83
2021/05/25 04:14:08;;;;;;;7.60;2.30;;;8.60;96.20;;;;;;4965729;28;20039;-83
2021/05/25 04:16:34;;;;;;;4.20;2.38;;;8.60;96.30;;;;;;4966043;28;20060;-83
2021/05/25 04:19:00;;;;;;;6.28;2.60;;;8.60;96.30;;;;;;4958451;28;20042;-82
2021/05/25 04:21:26;;;;;;;5.80;3.00;;;8.60;96.40;;;;;;4949010;28;20466;-86
2021/05/25 04:23:52;;;;;;;7.28;2.88;;;8.50;96.40;;;;;;4954194;28;20119;-89
2021/05/25 04:26:18;;;;;;;6.10;2.55;;;8.60;96.50;;;;;;4964986;28;20042;-85
2021/05/25 04:28:44;;;;;;;6.78;2.33;;;8.60;96.50;;;;;;4969185;28;20405;-88
2021/05/25 04:31:09;;;;;;;4.78;2.22;;;8.60;96.50;;;;;;4971649;28;20058;-86
2021/05/25 04:33:36;;;;;;;8.77;2.58;;;8.50;96.40;;;;;;4949627;28;20065;-84
2021/05/25 04:36:02;;;;;;;5.40;2.55;;;8.50;96.40;;;;;;4980761;28;20039;-86
2021/05/25 04:38:28;;;;;;;8.25;2.45;;;8.50;96.40;;;;;;4951153;28;20129;-88
2021/05/25 04:40:53;;;;;;;7.22;2.58;;;8.50;96.40;;;;;;4957095;28;20054;-86
2021/05/25 04:43:19;;;;;;;8.10;2.63;;;8.40;96.40;;;;;;5003647;28;20104;-87
2021/05/25 04:45:47;;;;;;;7.45;2.60;;;8.40;96.50;;;;;;4968355;28;20035;-86
2021/05/25 04:48:13;;;;;;;9.38;2.45;;;8.40;96.50;;;;;;4979284;28;20413;-88
2021/05/25 04:50:40;;;;;;;10.60;2.85;;;8.40;96.50;;;;;;4967825;28;20035;-85
2021/05/25 04:53:06;;;;;;;8.43;2.90;;;8.40;96.60;;;;;;4951193;28;20039;-87
2021/05/25 04:55:32;;;;;;;6.05;2.60;;;8.40;96.60;;;;;;4949182;28;20039;-86
2021/05/25 04:57:58;;;;;;;7.65;2.80;;;8.40;96.70;;;;;;4965724;28;20536;-86
2021/05/25 05:00:26;;;;;;;8.00;3.15;;;8.40;96.70;;;;;;4968176;28;20026;-86
2021/05/25 05:02:53;;;;;;;6.47;3.35;;;8.30;96.70;;;;;;4968635;28;20405;-85
2021/05/25 05:05:20;;;;;;;4.57;2.78;;;8.30;96.70;;;;;;4970020;28;20089;-87
2021/05/25 05:07:47;;;;;;;6.47;2.70;;;8.40;96.80;;;;;;4967067;28;20042;-87
2021/05/25 05:10:14;;;;;;;4.25;2.63;;;8.40;96.80;;;;;;4964481;28;20445;-89
2021/05/25 05:12:40;;;;;;;7.97;2.30;;;8.30;96.80;;;;;;4962241;28;20090;-87
2021/05/25 05:15:07;;;;;;;4.95;2.60;;;8.40;96.90;;;;;;4978386;28;20046;-88
2021/05/25 05:17:33;;;;;;;5.60;2.70;;;8.40;96.90;;;;;;4980369;28;20046;-88
2021/05/25 05:19:59;;;;;;;6.72;2.38;;;8.40;96.90;;;;;;4987586;28;20410;-84
2021/05/25 05:22:26;;;;;;;7.32;2.33;;;8.40;96.90;;;;;;4972898;28;20416;-84
2021/05/25 05:24:52;;;;;;;4.55;2.67;;;8.40;96.80;;;;;;4967744;28;20247;-85
2021/05/25 05:27:18;;;;;;;7.47;2.70;;;8.40;96.90;;;;;;4959732;28;20449;-86
2021/05/25 05:29:44;;;;;;;6.93;2.20;;;8.50;96.90;;;;;;4968833;28;20093;-87
2021/05/25 05:32:10;;;;;;;6.55;2.22;;;8.50;96.90;;;;;;4997391;28;20031;-84
2021/05/25 05:34:36;;;;;;;6.32;2.17;;;8.50;96.90;;;;;;4964947;28;20197;-85
2021/05/25 05:37:02;;;;;;;12.40;2.90;;;8.50;96.80;;;;;;4966641;28;20041;-87
2021/05/25 05:39:28;;;;;;;8.30;3.10;;;8.50;96.80;;;;;;4965177;28;20062;-86
2021/05/25 05:41:54;;;;;;;3.75;2.85;;;8.50;97.10;;;;;;4983913;28;20039;-85
2021/05/25 05:44:20;;;;;;;7.78;3.25;;;8.60;96.80;;;;;;4956273;28;20557;-83
2021/05/25 05:46:46;;;;;;;7.35;3.10;;;8.60;96.80;;;;;;4977671;28;20034;-84
2021/05/25 05:49:12;;;;;;;7.38;2.85;;;8.60;96.90;;;;;;4970177;28;20044;-83
2021/05/25 05:51:38;;;;;;;8.07;2.70;;;8.60;96.80;;;;;;4977594;28;20042;-85
2021/05/25 05:54:04;;;;;;;7.22;3.30;;;8.60;96.80;;;;;;4960462;28;20039;-84
2021/05/25 05:56:30;;;;;;;7.10;2.83;;;8.60;96.80;;;;;;4964115;28;20457;-88
2021/05/25 05:58:56;;;;;;;6.07;3.20;;;8.60;96.80;;;;;;4966331;28;20424;-85
2021/05/25 06:01:22;;;;;;;6.50;3.05;;;8.60;96.80;;;;;;4976686;28;20472;-90
2021/05/25 06:03:48;;;;;;;8.05;2.90;;;8.60;96.90;;;;;;4965326;28;20070;-86
2021/05/25 06:06:14;;;;;;;7.80;2.50;;;8.70;96.80;;;;;;4977262;28;20035;-86
2021/05/25 06:08:41;;;;;;;5.35;2.17;;;8.60;96.80;;;;;;4952359;28;20386;-86
2021/05/25 06:11:08;;;;;;;6.25;2.50;;;8.60;96.80;;;;;;4972019;28;20427;-88
2021/05/25 06:13:35;;;;;;;6.90;2.42;;;8.60;96.70;;;;;;4995598;28;20034;-85
2021/05/25 06:16:03;;;;;;;5.97;2.80;;;8.60;96.80;;;;;;4967697;28;20059;-85
2021/05/25 06:18:34;;;;;;;5.88;2.50;;;8.60;96.80;;;;;;4956392;28;20043;-87
2021/05/25 06:21:02;;;;;;;8.68;3.20;;;8.60;96.80;;;;;;4962609;28;20030;-84
2021/05/25 06:23:29;;;;;;;7.07;2.90;;;8.60;96.80;;;;;;4956843;28;20065;-84
2021/05/25 06:25:56;;;;;;;4.40;2.60;;;8.60;96.80;;;;;;4955188;28;20581;-83
2021/05/25 06:28:22;;;;;;;4.43;2.30;;;8.60;96.80;;;;;;4975169;28;20041;-84
2021/05/25 06:30:48;;;;;;;5.40;2.55;;;8.60;96.80;;;;;;4959432;28;20671;-85
2021/05/25 06:33:14;;;;;;;5.15;2.40;;;8.60;96.80;;;;;;4976681;28;20031;-85
2021/05/25 06:35:40;;;;;;;4.40;2.75;;;8.60;96.70;;;;;;4971124;28;20043;-84
2021/05/25 06:38:06;;;;;;;6.78;2.70;;;8.60;96.70;;;;;;4962800;28;20312;-83
2021/05/25 06:40:32;;;;;;;5.18;2.45;;;8.70;96.70;;;;;;4993429;28;20035;-84
2021/05/25 06:42:58;;;;;;;8.00;3.08;;;8.70;96.70;;;;;;4969728;28;20478;-84
2021/05/25 06:45:25;;;;;;;4.13;2.25;;;8.60;96.70;;;;;;4963343;28;20039;-83
2021/05/25 06:47:51;;;;;;;9.40;3.42;;;8.60;96.70;;;;;;4965856;28;20037;-82
2021/05/25 06:50:18;;;;;;;6.70;3.20;;;8.60;96.80;;;;;;4964620;28;20646;-82
2021/05/25 06:52:44;;;;;;;5.00;3.17;;;8.60;96.80;;;;;;4951479;28;20035;-83
2021/05/25 06:55:11;;;;;;;5.93;3.13;;;8.60;96.90;;;;;;4992804;28;20062;-83
2021/05/25 06:57:37;;;;;;;12.13;4.50;;;8.60;97.00;;;;;;4964672;28;20149;-82
2021/05/25 07:00:09;;;;;;;8.15;4.03;;;8.60;97.00;;;;;;4966511;28;20191;-83
2021/05/25 07:02:37;;;;;;;5.17;3.00;;;8.70;97.10;;;;;;4961727;28;20043;-82
2021/05/25 07:05:05;;;;;;;9.57;3.42;;;8.70;97.10;;;;;;4970377;28;20043;-84
2021/05/25 07:07:32;;;;;;;9.95;3.85;;;8.70;97.50;;;;;;4969052;28;20035;-82
2021/05/25 07:09:57;;;;;;;8.57;3.72;;;8.80;97.20;;;;;;4990445;28;20126;-82
2021/05/25 07:12:23;;;;;;;6.93;4.13;;;8.80;97.20;;;;;;4961017;28;20067;-82
2021/05/25 07:14:49;;;;;;;7.38;3.50;;;8.80;97.30;;;;;;4976443;28;20038;-83
2021/05/25 07:17:15;;;;;;;6.05;3.63;;;8.80;97.30;;;;;;4945691;28;20050;-81
2021/05/25 07:19:41;;;;;;;9.63;4.25;;;8.80;97.50;;;;;;4960047;28;20039;-82
2021/05/25 07:22:07;;;;;;;6.65;3.13;;;8.80;97.30;;;;;;4964043;28;20035;-81
2021/05/25 07:24:33;;;;;;;5.85;3.10;;;8.80;97.30;;;;;;4966885;28;20110;-82
2021/05/25 07:27:00;;;;;;;7.72;2.92;;;8.80;97.30;;;;;;4967015;28;20038;-82
2021/05/25 07:29:26;;;;;;;6.68;3.72;;;8.90;97.30;;;;;;4965720;28;20524;-82
2021/05/25 07:31:52;;;;;;;6.10;3.88;;;8.80;97.20;;;;;;4971204;28;20035;-82
2021/05/25 07:34:18;;;;;;;7.20;4.80;;;8.80;97.20;;;;;;4955934;28;20097;-83
2021/05/25 07:36:47;;;;;;;10.70;7.57;;;8.80;97.30;;;;;;4958544;28;20050;-82
2021/05/25 07:39:14;;;;;;;12.10;8.43;;;8.80;97.30;;;;;;4990406;28;20102;-82
2021/05/25 07:41:39;;;;;;;21.85;13.27;;;8.90;97.30;;;;;;4964990;28;20063;-82
2021/05/25 07:44:06;;;;;;;27.58;17.13;;;8.90;97.30;;;;;;4957712;28;20070;-82
2021/05/25 07:46:32;;;;;;;21.65;15.82;;;8.90;97.40;;;;;;4954166;28;20034;-81
2021/05/25 07:48:58;;;;;;;26.67;18.00;;;9.00;97.50;;;;;;4967648;28;20125;-81
2021/05/25 07:51:24;;;;;;;28.65;18.38;;;8.90;97.40;;;;;;4970409;28;20038;-81
2021/05/25 07:53:51;;;;;;;32.70;18.55;;;8.90;97.40;;;;;;4968919;28;20042;-81
2021/05/25 07:56:17;;;;;;;26.10;17.63;;;9.00;97.50;;;;;;4966832;28;20038;-82
2021/05/25 07:58:44;;;;;;;19.98;14.98;;;9.00;97.40;;;;;;4964276;28;20031;-81
2021/05/25 08:01:10;;;;;;;27.77;17.40;;;9.00;97.40;;;;;;4964086;28;20043;-82
2021/05/25 08:03:36;;;;;;;17.90;12.45;;;9.00;97.40;;;;;;4965441;28;20042;-81
2021/05/25 08:06:02;;;;;;;21.92;13.30;;;9.00;97.40;;;;;;4969001;28;20852;-81
2021/05/25 08:08:30;;;;;;;15.38;11.73;;;8.90;97.40;;;;;;4964590;28;20047;-81
2021/05/25 08:10:56;;;;;;;20.70;14.00;;;9.00;97.40;;;;;;4949414;28;20066;-80
2021/05/25 08:13:22;;;;;;;16.38;12.10;;;9.00;97.40;;;;;;4959560;28;20047;-81
2021/05/25 08:15:49;;;;;;;20.48;13.77;;;9.00;97.40;;;;;;4962023;28;20340;-80
2021/05/25 08:21:02;;;;;;;31.10;20.08;;;9.10;97.40;;;;;;4963169;28;20047;-81
2021/05/25 08:23:28;;;;;;;37.38;22.77;;;9.10;97.40;;;;;;4951022;28;20049;-81
2021/05/25 08:25:54;;;;;;;37.20;25.98;;;9.10;97.40;;;;;;4966719;28;20047;-81
2021/05/25 08:28:20;;;;;;;38.47;25.77;;;9.10;97.30;;;;;;4964373;28;20102;-81
2021/05/25 08:30:46;;;;;;;44.72;27.13;;;9.10;97.30;;;;;;4967647;28;20085;-81
2021/05/25 08:33:13;;;;;;;31.27;22.25;;;9.10;97.40;;;;;;4988145;28;20030;-81
2021/05/25 08:35:39;;;;;;;37.33;24.63;;;9.10;97.40;;;;;;4949106;28;20047;-82
2021/05/25 08:38:07;;;;;;;27.50;20.50;;;9.10;97.30;;;;;;4960207;28;20047;-81
2021/05/25 08:40:35;;;;;;;39.25;25.92;;;9.10;97.40;;;;;;4965629;28;20065;-82
2021/05/25 08:43:02;;;;;;;28.60;21.73;;;9.10;97.30;;;;;;4946275;28;20038;-82
2021/05/25 08:45:28;;;;;;;23.80;16.38;;;9.30;97.40;;;;;;4961616;28;20442;-82
2021/05/25 08:47:55;;;;;;;33.03;22.38;;;9.40;97.40;;;;;;4965395;28;20123;-80
2021/05/25 08:50:26;;;;;;;27.95;19.85;;;9.40;97.30;;;;;;4964195;28;20047;-81
2021/05/25 08:52:53;;;;;;;26.80;19.58;;;9.50;97.30;;;;;;4962975;28;20051;-81
2021/05/25 08:55:21;;;;;;;19.15;15.85;;;9.70;97.20;;;;;;4966708;28;20117;-81
2021/05/25 08:57:47;;;;;;;19.38;15.27;;;9.80;97.10;;;;;;4962077;28;20514;-79
2021/05/25 09:00:14;;;;;;;18.15;14.63;;;9.80;96.90;;;;;;4951261;28;20482;-81
2021/05/25 09:02:40;;;;;;;17.50;14.40;;;9.90;96.80;;;;;;4964166;28;20070;-81
2021/05/25 09:05:18;;;;;;;16.63;14.75;;;10.00;96.70;;;;;;4962978;28;20038;-81
2021/05/25 09:07:53;;;;;;;16.73;12.48;;;10.10;96.70;;;;;;4982133;28;20342;-82
2021/05/25 09:10:34;;;;;;;15.15;10.80;;;10.20;96.50;;;;;;4967086;28;20090;-81
2021/05/25 09:13:02;;;;;;;9.52;6.75;;;10.30;96.40;;;;;;4976860;28;20043;-82
2021/05/25 09:15:42;;;;;;;6.85;5.78;;;10.40;96.40;;;;;;4969930;28;20501;-81
2021/05/25 09:18:35;;;;;;;8.50;5.65;;;10.50;96.20;;;;;;4960617;28;20051;-82
2021/05/25 09:21:06;;;;;;;5.95;4.05;;;10.60;96.40;;;;;;4928209;28;20054;-82
2021/05/25 09:23:35;;;;;;;6.05;4.90;;;10.70;96.20;;;;;;4972133;28;20032;-81
2021/05/25 09:26:25;;;;;;;4.43;4.03;;;10.80;95.80;;;;;;4974763;28;20039;-81
2021/05/25 09:28:57;;;;;;;3.20;2.47;;;10.90;95.60;;;;;;4977940;28;20497;-83
2021/05/25 09:31:39;;;;;;;4.78;2.83;;;10.90;95.30;;;;;;4963182;28;20043;-84
2021/05/25 09:34:10;;;;;;;3.20;2.80;;;11.00;95.10;;;;;;4943737;28;20247;-82
2021/05/25 09:36:59;;;;;;;3.83;2.25;;;10.90;94.70;;;;;;4963244;28;20042;-82
2021/05/25 09:39:27;;;;;;;3.22;2.08;;;10.80;94.50;;;;;;4978400;28;20042;-83
2021/05/25 09:41:57;;;;;;;2.45;2.00;;;10.80;94.60;;;;;;4964692;28;20115;-83
2021/05/25 09:44:22;;;;;;;2.25;1.85;;;10.80;94.40;;;;;;4968208;28;20034;-82
2021/05/25 09:46:49;;;;;;;2.72;1.83;;;10.80;94.40;;;;;;4966717;28;20577;-83
2021/05/25 09:49:15;;;;;;;2.60;1.90;;;10.90;94.40;;;;;;4968070;28;20062;-84
2021/05/25 09:51:41;;;;;;;4.25;2.90;;;11.00;94.30;;;;;;4964688;28;20058;-81
2021/05/25 09:54:23;;;;;;;3.75;2.45;;;11.20;94.20;;;;;;4965458;28;20110;-81
2021/05/25 09:57:00;;;;;;;6.03;2.35;;;11.30;94.00;;;;;;4962903;28;20070;-82
2021/05/25 09:59:29;;;;;;;3.20;2.33;;;11.40;93.80;;;;;;4962612;28;20104;-81
2021/05/25 10:01:55;;;;;;;3.53;2.42;;;11.40;93.70;;;;;;4964156;28;20046;-83
2021/05/25 10:04:23;;;;;;;2.05;1.48;;;11.40;93.60;;;;;;4963692;28;20086;-83
2021/05/25 10:06:49;;;;;;;4.97;1.23;;;11.40;93.50;;;;;;4959180;28;20037;-81
2021/05/25 10:09:15;;;;;;;3.58;1.95;;;11.30;93.20;;;;;;4963027;28;20089;-82
2021/05/25 10:11:44;;;;;;;1.75;1.40;;;11.10;93.00;;;;;;4963045;28;20110;-83
2021/05/25 10:14:11;;;;;;;2.97;1.50;;;11.00;93.00;;;;;;4981062;28;20122;-83
2021/05/25 10:16:45;;;;;;;3.35;1.38;;;10.80;93.00;;;;;;4996886;28;20043;-83
2021/05/25 10:21:38;;;;;;;4.07;1.75;;;10.50;93.30;;;;;;4975327;28;20051;-83
2021/05/25 10:24:05;;;;;;;3.92;2.20;;;10.50;93.50;;;;;;4999587;28;20042;-84
2021/05/25 10:26:32;;;;;;;3.63;2.50;;;10.40;93.60;;;;;;4961486;28;20027;-82
2021/05/25 10:29:04;;;;;;;4.70;2.85;;;10.30;93.90;;;;;;4968401;28;20046;-85
2021/05/25 10:31:32;;;;;;;5.65;2.38;;;10.30;94.10;;;;;;4974188;28;20154;-83
2021/05/25 10:34:14;;;;;;;4.32;2.58;;;10.20;94.20;;;;;;4981514;28;20101;-83
2021/05/25 10:36:53;;;;;;;4.70;2.50;;;10.20;94.40;;;;;;4978012;28;20053;-82
2021/05/25 10:39:37;;;;;;;3.53;1.60;;;10.20;94.50;;;;;;4964760;28;20035;-82
2021/05/25 10:42:22;;;;;;;2.10;1.10;;;10.20;94.60;;;;;;4959579;28;20193;-83
2021/05/25 10:44:50;;;;;;;2.17;1.25;;;10.10;94.50;;;;;;4968470;28;20047;-84
2021/05/25 10:47:53;;;;;;;3.47;1.38;;;10.10;94.50;;;;;;4956086;28;20038;-83
2021/05/25 10:52:55;;;;;;;3.03;1.50;;;10.00;94.70;;;;;;4967506;28;20125;-83
2021/05/25 10:55:44;;;;;;;2.22;1.42;;;9.90;94.90;;;;;;4979816;28;20118;-82
2021/05/25 10:58:29;;;;;;;3.50;1.30;;;9.90;94.90;;;;;;4949748;28;20031;-83
2021/05/25 11:00:56;;;;;;;5.00;1.40;;;9.90;94.90;;;;;;4969673;28;20065;-83
2021/05/25 11:03:22;;;;;;;1.90;1.10;;;9.90;94.90;;;;;;4961002;28;20039;-83
2021/05/25 11:05:52;;;;;;;4.50;1.30;;;9.90;94.80;;;;;;4963444;28;22367;-83
2021/05/25 11:08:19;;;;;;;2.30;1.60;;;9.80;94.70;;;;;;4955751;28;20364;-83
2021/05/25 11:10:59;;;;;;;2.83;1.52;;;9.80;94.90;;;;;;4968139;28;20062;-84
2021/05/25 11:13:26;;;;;;;3.28;1.35;;;9.80;95.00;;;;;;4964463;28;20484;-84
2021/05/25 11:18:58;;;;;;;4.18;1.30;;;10.00;95.20;;;;;;4953658;28;20053;-84
2021/05/25 11:24:27;;;;;;;2.75;1.77;;;10.00;95.00;;;;;;4962588;28;20563;-83
2021/05/25 11:26:58;;;;;;;2.35;1.58;;;10.00;95.10;;;;;;4973496;28;20039;-86
2021/05/25 11:29:29;;;;;;;5.57;1.50;;;10.00;95.10;;;;;;4964085;28;20130;-83
2021/05/25 11:31:58;;;;;;;2.38;1.67;;;10.00;95.10;;;;;;4950137;28;20243;-82
2021/05/25 11:34:26;;;;;;;5.47;1.50;;;10.00;95.10;;;;;;4962507;28;20039;-83
2021/05/25 11:37:02;;;;;;;2.30;1.38;;;9.90;95.20;;;;;;4983903;28;20536;-83
2021/05/25 11:39:32;;;;;;;4.30;2.08;;;10.00;95.20;;;;;;4981857;28;20049;-84
2021/05/25 11:41:58;;;;;;;4.35;1.45;;;9.90;95.30;;;;;;4952826;28;20097;-83
2021/05/25 11:44:41;;;;;;;3.15;2.03;;;10.00;95.40;;;;;;4966551;28;20066;-83
2021/05/25 11:47:07;;;;;;;2.67;1.73;;;9.90;95.30;;;;;;4963607;28;20039;-83
2021/05/25 11:49:41;;;;;;;3.75;1.60;;;9.90;95.30;;;;;;4960691;28;20133;-83
2021/05/25 11:52:25;;;;;;;2.95;1.45;;;9.90;95.30;;;;;;4960912;28;20466;-83
2021/05/25 11:54:57;;;;;;;5.10;1.42;;;9.90;95.30;;;;;;4975715;28;20138;-82
2021/05/25 11:57:40;;;;;;;5.70;1.80;;;9.90;95.30;;;;;;4974964;28;20054;-82
2021/05/25 12:00:07;;;;;;;;;;;9.80;95.30;;;;;;4961775;28;20030;-82
2021/05/25 12:02:34;;;;;;;3.42;1.30;;;9.80;95.10;;;;;;4957826;28;19930;-83
2021/05/25 12:05:24;;;;;;;5.80;1.60;;;9.80;95.20;;;;;;4965360;28;20046;-81
2021/05/25 12:07:55;;;;;;;3.75;1.60;;;9.80;95.30;;;;;;4972211;28;20039;-82
2021/05/25 12:10:32;;;;;;;4.35;1.70;;;9.70;95.30;;;;;;4963265;28;20046;-82
2021/05/25 12:13:11;;;;;;;3.25;1.60;;;9.70;95.30;;;;;;4962851;28;20556;-81
2021/05/25 12:15:48;;;;;;;3.92;1.90;;;9.70;95.30;;;;;;4962266;28;20274;-81
2021/05/25 12:18:17;;;;;;;5.70;1.98;;;9.70;95.40;;;;;;4972561;28;20066;-83
2021/05/25 12:20:46;;;;;;;2.50;1.80;;;9.70;95.40;;;;;;4959644;28;20050;-82
2021/05/25 12:23:14;;;;;;;3.90;2.10;;;9.70;95.40;;;;;;4962760;28;20035;-82
2021/05/25 12:25:42;;;;;;;3.88;1.75;;;9.70;95.50;;;;;;4959330;28;20051;-83
2021/05/25 12:28:32;;;;;;;5.18;1.77;;;9.70;95.50;;;;;;4971092;28;20046;-82
2021/05/25 12:30:58;;;;;;;4.47;1.92;;;9.80;95.40;;;;;;4953649;28;20087;-82
2021/05/25 12:33:30;;;;;;;5.78;1.90;;;9.80;95.30;;;;;;4971532;28;20188;-82
2021/05/25 12:36:37;;;;;;;5.65;2.30;;;9.80;95.30;;;;;;4965304;28;20039;-83
2021/05/25 12:39:19;;;;;;;2.90;1.95;;;9.90;95.40;;;;;;4878333;29;20102;-82
2021/05/25 12:41:47;;;;;;;3.50;1.75;;;10.00;95.40;;;;;;4948663;28;20193;-82
2021/05/25 12:44:19;;;;;;;2.45;1.73;;;10.10;95.30;;;;;;4984063;28;20047;-82
2021/05/25 12:46:55;;;;;;;;;;;10.10;95.30;;;;;;4965267;28;20049;-82
2021/05/25 12:49:41;;;;;;;3.88;1.65;;;10.20;95.30;;;;;;4978731;28;19984;-84
2021/05/25 12:52:26;;;;;;;5.57;1.95;;;10.30;95.00;;;;;;4964044;28;20054;-82
2021/05/25 12:55:09;;;;;;;3.08;2.10;;;10.30;95.00;;;;;;4974999;28;20034;-83
2021/05/25 12:57:52;;;;;;;3.67;2.10;;;10.40;95.00;;;;;;4965890;28;20050;-83
2021/05/25 13:00:40;;;;;;;3.22;2.60;;;10.50;95.10;;;;;;4984091;28;20054;-82
2021/05/25 13:03:27;;;;;;;3.75;2.20;;;10.60;95.00;;;;;;4969837;28;20490;-82
2021/05/25 13:06:13;;;;;;;2.72;1.83;;;10.70;95.30;;;;;;4985436;28;20126;-83
2021/05/25 13:08:40;;;;;;;4.32;1.90;;;10.70;94.70;;;;;;4970700;28;20038;-83
2021/05/25 13:11:07;;;;;;;3.10;1.70;;;10.80;94.70;;;;;;4971556;28;20042;-83
2021/05/25 13:13:43;;;;;;;3.65;1.90;;;10.80;94.60;;;;;;4951426;28;20078;-83